createdAt,value
2019-03-02T00:00:43.258Z,26.6
2019-03-02T00:06:38.240Z,27.66
2019-03-02T00:12:33.235Z,29.41
2019-03-02T00:18:29.055Z,28.46
2019-03-02T00:24:23.237Z,29.75
2019-03-02T00:30:21.066Z,28.53
2019-03-02T00:36:15.912Z,26.92
2019-03-02T00:42:08.254Z,26.57
2019-03-02T00:48:03.251Z,28.89
2019-03-02T00:53:58.275Z,28.94
2019-03-02T00:59:53.355Z,26.89
2019-03-02T01:05:48.285Z,28.97
2019-03-02T01:11:43.258Z,28.09
2019-03-02T01:17:38.267Z,31.57
2019-03-02T01:23:33.274Z,30.03
2019-03-02T01:29:28.277Z,31.1
2019-03-02T01:35:23.291Z,27.17
2019-03-02T01:41:19.057Z,27.07
2019-03-02T01:47:15.728Z,29.81
2019-03-02T01:53:09.859Z,30.43
2019-03-02T01:59:03.896Z,30.67
2019-03-02T02:04:58.398Z,29.52
2019-03-02T02:10:53.296Z,30.68
2019-03-02T02:16:48.298Z,30.93
2019-03-02T02:22:43.304Z,30.53
2019-03-02T02:28:38.304Z,31.45
2019-03-02T02:34:33.317Z,29.69
2019-03-02T02:40:28.360Z,29.95
2019-03-02T02:46:27.278Z,32.89
2019-03-02T02:52:23.151Z,31.46
2019-03-02T02:58:17.344Z,32.89
2019-03-02T03:04:08.429Z,30.23
2019-03-02T03:10:03.438Z,29.08
2019-03-02T03:15:58.393Z,29.95
2019-03-02T03:21:53.361Z,33.83
2019-03-02T03:27:51.715Z,32.82
2019-03-02T03:33:46.939Z,32.68
2019-03-02T03:39:41.711Z,33.99
2019-03-02T03:45:42.036Z,33.7
2019-03-02T03:51:30.398Z,29.59
2019-03-02T03:57:23.378Z,30.96
2019-03-02T04:03:18.397Z,30.77
2019-03-02T04:09:13.372Z,35.62
2019-03-02T04:15:08.390Z,32.98
2019-03-02T04:21:03.426Z,35.58
2019-03-02T04:26:58.366Z,33.6
2019-03-02T04:32:53.381Z,30.4
2019-03-02T04:38:48.396Z,31.78
2019-03-02T04:44:43.461Z,33.19
2019-03-02T04:50:38.401Z,33.91
2019-03-02T04:56:33.441Z,34.45
2019-03-02T05:02:28.404Z,33.21
2019-03-02T05:08:23.395Z,30.43
2019-03-02T05:14:18.400Z,31.7
2019-03-02T05:20:13.416Z,33.44
2019-03-02T05:26:08.416Z,32.56
2019-03-02T05:32:03.425Z,26.06
2019-03-02T05:37:58.417Z,21.93
2019-03-02T05:43:53.420Z,23.2
2019-03-02T05:49:50.689Z,35.8
2019-03-02T05:55:43.433Z,34.22
2019-03-02T06:01:40.287Z,28.63
2019-03-02T06:07:33.509Z,30.63
2019-03-02T06:13:29.559Z,28.05
2019-03-02T06:19:24.197Z,28.5
2019-03-02T06:25:20.985Z,31.76
2019-03-02T06:31:15.710Z,27.8
2019-03-02T06:37:08.475Z,26.64
2019-03-02T06:43:03.435Z,29.37
2019-03-02T06:48:58.438Z,29.07
2019-03-02T06:54:53.457Z,32.23
2019-03-02T07:00:48.829Z,32.39
2019-03-02T07:06:46.643Z,30.94
2019-03-02T07:12:41.718Z,33.44
2019-03-02T07:18:33.490Z,36.22
2019-03-02T07:24:29.377Z,34.15
2019-03-02T07:30:23.497Z,35.93
2019-03-02T07:36:18.477Z,34.17
2019-03-02T07:42:13.543Z,36.95
2019-03-02T07:48:08.489Z,36.71
2019-03-02T07:54:05.910Z,39.08
2019-03-02T08:00:02.053Z,37.17
2019-03-02T08:05:53.496Z,35.84
2019-03-02T08:11:48.946Z,39.68
2019-03-02T08:17:45.539Z,42.54
2019-03-02T08:23:38.510Z,46.67
2019-03-02T08:29:33.525Z,53.24
2019-03-02T08:35:28.519Z,54.62
2019-03-02T08:41:24.370Z,47.22
2019-03-02T08:47:18.527Z,46.35
2019-03-02T08:53:13.501Z,48.69
2019-03-02T08:59:08.510Z,45.57
2019-03-02T09:05:03.526Z,44.94
2019-03-02T09:10:58.544Z,50.42
2019-03-02T09:16:53.549Z,56.07
2019-03-02T09:22:48.515Z,53.06
2019-03-02T09:28:43.589Z,52.92
2019-03-02T09:34:40.381Z,58.73
2019-03-02T09:40:33.536Z,60.55
2019-03-02T09:46:28.551Z,60.52
2019-03-02T09:52:23.535Z,58.32
2019-03-02T09:58:20.157Z,40.8
2019-03-02T10:04:13.540Z,64.59
2019-03-02T10:10:08.559Z,61.82
2019-03-02T10:16:04.332Z,61.84
2019-03-02T10:21:58.572Z,71.33
2019-03-02T10:27:56.885Z,68.43
2019-03-02T10:33:48.575Z,71.77
2019-03-02T10:39:43.581Z,64.98
2019-03-02T10:45:38.567Z,66.7
2019-03-02T10:51:33.874Z,64.83
2019-03-02T10:57:28.590Z,67.21
2019-03-02T11:03:23.614Z,65.8
2019-03-02T11:09:22.318Z,72.41
2019-03-02T11:15:13.606Z,73.95
2019-03-02T11:21:08.614Z,68.68
2019-03-02T11:27:03.602Z,61.4
2019-03-02T11:32:58.640Z,50.57
2019-03-02T11:38:53.627Z,66.02
2019-03-02T11:44:48.603Z,66.55
2019-03-02T11:50:46.778Z,75.6
2019-03-02T11:56:38.967Z,65.51
2019-03-02T12:02:33.624Z,60.98
2019-03-02T12:08:28.622Z,60.47
2019-03-02T12:14:23.653Z,65.48
2019-03-02T12:20:18.618Z,67.33
2019-03-02T12:26:13.672Z,53.43
2019-03-02T12:32:08.872Z,49.07
2019-03-02T12:38:07.081Z,43.63
2019-03-02T12:43:58.641Z,48.05
2019-03-02T12:49:53.636Z,46.35
2019-03-02T12:55:48.622Z,45.59
2019-03-02T13:01:43.655Z,47.91
2019-03-02T13:07:38.641Z,44.14
2019-03-02T13:13:33.656Z,45.41
2019-03-02T13:19:28.660Z,44.87
2019-03-02T13:25:23.655Z,48.46
2019-03-02T13:31:18.646Z,50.05
2019-03-02T13:43:08.681Z,50.27
2019-03-02T13:43:08.708Z,52.26
2019-03-02T13:54:59.360Z,48.01
2019-03-02T13:54:59.361Z,49.24
2019-03-02T14:00:53.680Z,46.51
2019-03-02T14:06:50.862Z,47.78
2019-03-02T14:12:43.687Z,45.92
2019-03-02T14:18:38.679Z,40.38
2019-03-02T14:24:33.708Z,44.13
2019-03-02T14:30:28.706Z,41.17
2019-03-02T14:36:23.731Z,45.36
2019-03-02T14:42:18.691Z,31.61
2019-03-02T14:48:14.767Z,45.6
2019-03-02T14:54:09.117Z,19.43
2019-03-02T15:00:03.742Z,36.82
2019-03-02T15:06:08.508Z,39.05
2019-03-02T15:11:53.731Z,44.06
2019-03-02T15:17:49.129Z,46.58
2019-03-02T15:23:43.712Z,47.11
2019-03-02T15:29:38.735Z,34.11
2019-03-02T15:35:34.899Z,17.35
2019-03-02T15:41:28.770Z,44.74
2019-03-02T15:47:23.732Z,43.6
2019-03-02T15:53:20.236Z,42.85
2019-03-02T15:59:15.413Z,30.9
2019-03-02T16:05:11.148Z,23.54
2019-03-02T16:11:03.805Z,21.93
2019-03-02T16:16:59.829Z,24.8
2019-03-02T16:22:53.770Z,24.32
2019-03-02T16:28:50.774Z,33.69
2019-03-02T16:34:43.946Z,35.86
2019-03-02T16:40:38.756Z,34.74
2019-03-02T16:46:34.950Z,38.71
2019-03-02T16:52:28.768Z,37.13
2019-03-02T16:58:23.784Z,36.57
2019-03-02T17:04:19.802Z,39.37
2019-03-02T17:10:13.768Z,40
2019-03-02T17:16:08.778Z,55.01
2019-03-02T17:22:03.777Z,41.48
2019-03-02T17:27:59.676Z,39.53
2019-03-02T17:33:53.799Z,47
2019-03-02T17:39:48.812Z,48.4
2019-03-02T17:45:43.797Z,37.98
2019-03-02T17:51:38.822Z,37.98
2019-03-02T17:57:33.830Z,37.91
2019-03-02T18:03:28.818Z,42.42
2019-03-02T18:09:24.187Z,39.66
2019-03-02T18:15:21.951Z,36.8
2019-03-02T18:21:13.816Z,41.93
2019-03-02T18:27:08.844Z,56.01
2019-03-02T18:33:03.857Z,51.94
2019-03-02T18:39:00.912Z,43.04
2019-03-02T18:44:54.195Z,42.9
2019-03-02T18:50:48.829Z,47.72
2019-03-02T18:56:43.857Z,40.77
2019-03-02T19:02:38.860Z,36.33
2019-03-02T19:08:33.835Z,38.78
2019-03-02T19:14:30.300Z,41.48
2019-03-02T19:20:23.898Z,34.29
2019-03-02T19:26:18.854Z,33.74
2019-03-02T19:32:13.868Z,50.99
2019-03-02T19:38:08.876Z,34.93
2019-03-02T19:44:03.892Z,27.09
2019-03-02T19:49:58.961Z,29.88
2019-03-02T19:55:53.933Z,30.91
2019-03-02T20:01:48.904Z,36.52
2019-03-02T20:07:43.884Z,33.63
2019-03-02T20:13:38.933Z,33.85
2019-03-02T20:19:33.892Z,39.09
2019-03-02T20:25:28.922Z,55.24
2019-03-02T20:31:23.956Z,43.41
2019-03-02T20:37:18.910Z,36.83
2019-03-02T20:43:13.901Z,28.75
2019-03-02T20:49:08.892Z,30.75
2019-03-02T20:55:03.910Z,27.06
2019-03-02T21:00:58.880Z,32.58
2019-03-02T21:06:53.888Z,35.05
2019-03-02T21:12:48.913Z,33.73
2019-03-02T21:18:43.907Z,32.98
2019-03-02T21:24:38.917Z,36.96
2019-03-02T21:30:33.929Z,37.27
2019-03-02T21:36:28.938Z,42.69
2019-03-02T21:42:23.918Z,49.56
2019-03-02T21:48:18.953Z,43.64
2019-03-02T21:54:13.936Z,37.52
2019-03-02T22:00:08.946Z,37.19
2019-03-02T22:06:03.939Z,39.34
2019-03-02T22:11:58.926Z,38.21
2019-03-02T22:17:53.938Z,36.52
2019-03-02T22:23:49.027Z,34.03
2019-03-02T22:29:43.971Z,36.8
2019-03-02T22:35:38.950Z,33.59
2019-03-02T22:41:33.974Z,31.76
2019-03-02T22:47:28.955Z,24.77
2019-03-02T22:53:23.956Z,21.87
2019-03-02T22:59:18.977Z,34.49
2019-03-02T23:05:13.976Z,19.18
2019-03-02T23:11:08.993Z,20.89
2019-03-02T23:17:03.971Z,23.73
2019-03-02T23:22:58.988Z,25.47
2019-03-02T23:28:53.975Z,24.09
2019-03-02T23:34:49.031Z,26.61
2019-03-02T23:40:43.991Z,23.8
2019-03-02T23:46:39.018Z,24.68
2019-03-02T23:52:34.003Z,27.1
2019-03-02T23:58:29.008Z,25.43
